createdAt,value
2023-03-21T00:01:59.276Z,57.71
2023-03-21T00:06:51.836Z,57.81
2023-03-21T00:11:43.655Z,57.84
2023-03-21T00:16:36.736Z,57.94
2023-03-21T00:26:45.123Z,58.08
2023-03-21T00:31:37.367Z,58.03
2023-03-21T00:36:29.448Z,58.55
2023-03-21T00:41:39.059Z,58.59
2023-03-21T00:46:45.224Z,58.65
2023-03-21T00:51:43.805Z,58.69
2023-03-21T00:56:35.528Z,59.05
2023-03-21T01:01:32.020Z,59.32
2023-03-21T01:06:24.073Z,59.47
2023-03-21T01:11:20.986Z,59.43
2023-03-21T01:16:12.868Z,59.85
2023-03-21T01:21:08.485Z,59.56
2023-03-21T01:26:00.256Z,59.91
2023-03-21T01:30:52.563Z,60.05
2023-03-21T01:35:50.279Z,59.59
2023-03-21T01:40:48.885Z,60.60
2023-03-21T01:46:21.493Z,59.86
2023-03-21T01:51:41.282Z,60.09
2023-03-21T01:56:37.134Z,60.44
2023-03-21T02:01:34.836Z,60.26
2023-03-21T02:06:38.402Z,60.74
2023-03-21T02:11:56.811Z,60.81
2023-03-21T02:17:13.188Z,61.25
2023-03-21T02:22:05.531Z,61.62
2023-03-21T02:27:14.744Z,61.30
2023-03-21T02:32:22.710Z,61.24
2023-03-21T02:37:38.873Z,61.87
2023-03-21T02:42:48.875Z,61.48
2023-03-21T02:47:52.705Z,61.85
2023-03-21T02:52:48.227Z,61.42
2023-03-21T02:57:43.916Z,61.49
2023-03-21T03:02:37.770Z,61.25
2023-03-21T03:07:47.554Z,61.41
2023-03-21T03:12:49.473Z,61.43
2023-03-21T03:17:59.970Z,62.31
2023-03-21T03:23:04.095Z,62.31
2023-03-21T03:27:58.048Z,63.09
2023-03-21T03:32:55.472Z,63.37
2023-03-21T03:37:53.326Z,64.15
2023-03-21T03:42:52.185Z,64.23
2023-03-21T03:48:27.938Z,64.32
2023-03-21T03:53:28.504Z,64.00
2023-03-21T03:58:25.997Z,64.46
2023-03-21T04:03:23.297Z,64.24
2023-03-21T04:08:16.565Z,63.54
2023-03-21T04:13:13.216Z,63.43
2023-03-21T04:18:24.991Z,63.56
2023-03-21T04:23:18.945Z,63.47
2023-03-21T04:28:12.693Z,63.43
2023-03-21T04:33:27.536Z,63.16
2023-03-21T04:38:23.705Z,63.11
2023-03-21T04:43:15.984Z,63.52
2023-03-21T04:48:07.987Z,63.58
2023-03-21T04:52:59.918Z,63.55
2023-03-21T04:57:52.034Z,64.38
2023-03-21T05:02:46.225Z,63.77
2023-03-21T05:07:39.764Z,63.25
2023-03-21T05:12:31.933Z,64.08
2023-03-21T05:17:24.962Z,63.99
2023-03-21T05:22:19.223Z,64.43
2023-03-21T05:27:14.184Z,64.81
2023-03-21T05:32:10.042Z,65.26
2023-03-21T05:37:01.793Z,64.92
2023-03-21T05:42:12.634Z,64.90
2023-03-21T05:47:06.616Z,64.58
2023-03-21T05:52:10.695Z,64.45
2023-03-21T05:57:04.228Z,64.41
2023-03-21T06:02:15.988Z,64.58
2023-03-21T06:07:08.384Z,64.18
2023-03-21T06:12:04.674Z,63.98
2023-03-21T06:17:26.131Z,63.99
2023-03-21T06:22:23.039Z,63.30
2023-03-21T06:27:15.095Z,63.64
2023-03-21T06:32:18.820Z,63.45
2023-03-21T06:37:12.275Z,63.29
2023-03-21T06:42:04.354Z,63.23
2023-03-21T06:46:56.362Z,62.77
2023-03-21T06:51:48.153Z,62.93
2023-03-21T06:56:43.719Z,63.56
2023-03-21T07:01:38.884Z,63.73
2023-03-21T07:06:32.974Z,63.64
2023-03-21T07:11:25.664Z,64.82
2023-03-21T07:16:18.679Z,65.62
2023-03-21T07:21:11.149Z,67.28
2023-03-21T07:26:07.050Z,69.65
2023-03-21T07:31:02.653Z,70.43
2023-03-21T07:35:55.544Z,70.55
2023-03-21T07:40:48.828Z,70.70
2023-03-21T07:45:42.638Z,70.51
2023-03-21T07:50:34.611Z,70.25
2023-03-21T07:55:26.822Z,71.27
2023-03-21T08:00:23.239Z,73.34
2023-03-21T08:05:15.158Z,73.64
2023-03-21T08:10:07.860Z,74.71
2023-03-21T08:15:01.190Z,75.04
2023-03-21T08:19:53.014Z,75.64
2023-03-21T08:24:44.693Z,75.56
2023-03-21T08:29:40.928Z,76.52
2023-03-21T08:34:32.695Z,76.74
2023-03-21T08:39:25.118Z,75.31
2023-03-21T08:44:17.122Z,75.01
2023-03-21T08:49:08.772Z,74.72
2023-03-21T08:54:00.505Z,75.17
2023-03-21T08:58:52.179Z,75.51
2023-03-21T09:03:43.828Z,75.90
2023-03-21T09:08:35.474Z,76.33
2023-03-21T09:13:27.172Z,76.19
2023-03-21T09:18:22.363Z,77.81
2023-03-21T09:23:14.873Z,76.15
2023-03-21T09:28:06.800Z,76.04
2023-03-21T09:33:09.007Z,73.54
2023-03-21T09:38:01.406Z,72.88
2023-03-21T09:42:56.750Z,73.13
2023-03-21T09:47:53.329Z,73.08
2023-03-21T09:52:51.892Z,73.37
2023-03-21T09:57:45.808Z,71.45
2023-03-21T10:03:07.412Z,71.31
2023-03-21T10:07:59.196Z,72.06
2023-03-21T10:12:53.877Z,73.78
2023-03-21T10:17:52.954Z,74.82
2023-03-21T10:22:47.174Z,73.96
2023-03-21T10:27:38.934Z,74.08
2023-03-21T10:32:30.616Z,71.67
2023-03-21T10:37:23.160Z,69.74
2023-03-21T10:42:26.139Z,69.05
2023-03-21T10:47:31.694Z,69.42
2023-03-21T10:52:28.614Z,69.11
2023-03-21T10:57:23.071Z,69.43
2023-03-21T11:02:24.763Z,68.64
2023-03-21T11:07:19.311Z,69.08
2023-03-21T11:12:14.566Z,70.12
2023-03-21T11:17:18.752Z,70.47
2023-03-21T11:22:13.026Z,70.33
2023-03-21T11:27:09.273Z,70.74
2023-03-21T11:32:23.303Z,70.51
2023-03-21T11:37:32.055Z,71.18
2023-03-21T11:42:39.652Z,71.92
2023-03-21T11:47:31.692Z,72.62
2023-03-21T11:52:41.270Z,72.90
2023-03-21T11:57:52.838Z,75.38
2023-03-21T12:02:56.816Z,76.53
2023-03-21T12:08:08.969Z,77.15
2023-03-21T12:13:22.074Z,77.48
2023-03-21T12:18:35.721Z,77.39
2023-03-21T12:23:51.645Z,77.97
2023-03-21T12:29:05.278Z,75.54
2023-03-21T12:34:10.527Z,75.54
2023-03-21T12:39:24.417Z,74.43
2023-03-21T12:44:20.724Z,74.84
2023-03-21T12:49:26.599Z,71.53
2023-03-21T12:54:18.196Z,71.72
2023-03-21T12:59:28.121Z,69.85
2023-03-21T13:04:46.674Z,68.61
2023-03-21T13:09:40.658Z,68.71
2023-03-21T13:14:41.299Z,68.34
2023-03-21T13:19:50.467Z,67.83
2023-03-21T13:24:50.317Z,68.26
2023-03-21T13:29:49.717Z,67.30
2023-03-21T13:34:41.801Z,66.55
2023-03-21T13:39:33.616Z,66.54
2023-03-21T13:44:36.104Z,66.88
2023-03-21T13:49:29.188Z,67.77
2023-03-21T13:54:29.759Z,67.31
2023-03-21T13:59:42.887Z,65.89
2023-03-21T14:04:41.928Z,66.83
2023-03-21T14:09:50.697Z,66.95
2023-03-21T14:15:14.177Z,66.00
2023-03-21T14:20:42.208Z,66.31
2023-03-21T14:25:44.715Z,66.22
2023-03-21T14:30:42.100Z,67.86
2023-03-21T14:35:34.349Z,67.25
2023-03-21T14:40:28.488Z,66.62
2023-03-21T14:45:23.787Z,66.89
2023-03-21T14:50:15.653Z,66.81
2023-03-21T14:55:15.673Z,65.93
2023-03-21T15:00:14.569Z,65.31
2023-03-21T15:05:29.222Z,65.52
2023-03-21T15:10:21.522Z,64.86
2023-03-21T15:15:15.039Z,64.73
2023-03-21T15:20:10.159Z,64.96
2023-03-21T15:25:06.721Z,64.06
2023-03-21T15:29:58.676Z,64.09
2023-03-21T15:34:54.191Z,64.28
2023-03-21T15:39:45.992Z,64.90
2023-03-21T15:44:37.675Z,64.19
2023-03-21T15:49:33.813Z,62.98
2023-03-21T15:54:27.789Z,61.15
2023-03-21T15:59:19.671Z,59.21
2023-03-21T16:04:13.510Z,59.21
2023-03-21T16:09:25.203Z,58.70
2023-03-21T16:14:18.728Z,58.80
2023-03-21T16:19:10.527Z,58.30
2023-03-21T16:24:02.270Z,58.10
2023-03-21T16:28:54.755Z,57.27
2023-03-21T16:33:47.442Z,56.88
2023-03-21T16:38:39.275Z,56.84
2023-03-21T16:43:31.106Z,56.51
2023-03-21T16:48:23.030Z,57.44
2023-03-21T16:53:14.798Z,57.34
2023-03-21T16:58:06.747Z,57.82
2023-03-21T17:03:06.193Z,57.80
2023-03-21T17:08:02.159Z,57.77
2023-03-21T17:12:54.570Z,58.36
2023-03-21T17:17:48.725Z,58.19
2023-03-21T17:22:40.430Z,57.89
2023-03-21T17:27:32.129Z,56.69
2023-03-21T17:32:23.864Z,55.95
2023-03-21T17:37:16.272Z,55.20
2023-03-21T17:42:15.759Z,55.02
2023-03-21T17:47:07.754Z,54.95
2023-03-21T17:51:59.474Z,54.58
2023-03-21T17:56:51.758Z,54.72
2023-03-21T18:01:43.830Z,55.21
2023-03-21T18:06:37.302Z,55.31
2023-03-21T18:11:29.141Z,55.18
2023-03-21T18:16:23.444Z,55.46
2023-03-21T18:21:18.831Z,55.49
2023-03-21T18:26:16.479Z,54.91
2023-03-21T18:31:15.621Z,54.63
2023-03-21T18:36:13.904Z,54.59
2023-03-21T18:41:07.811Z,54.71
2023-03-21T18:45:59.783Z,54.37
2023-03-21T18:50:51.501Z,54.40
2023-03-21T18:55:46.424Z,55.69
2023-03-21T19:00:41.060Z,54.54
2023-03-21T19:05:33.185Z,54.85
2023-03-21T19:10:24.997Z,54.98
2023-03-21T19:15:19.610Z,54.69
2023-03-21T19:20:13.882Z,54.45
2023-03-21T19:25:07.261Z,54.87
2023-03-21T19:30:13.416Z,55.22
2023-03-21T19:35:07.432Z,55.42
2023-03-21T19:39:59.117Z,55.83
2023-03-21T19:44:50.971Z,56.19
2023-03-21T19:50:27.753Z,56.40
2023-03-21T19:54:55.185Z,56.59
2023-03-21T19:59:47.686Z,56.44
2023-03-21T20:04:39.959Z,56.93
2023-03-21T20:09:50.425Z,56.47
2023-03-21T20:14:47.685Z,56.85
2023-03-21T20:19:39.305Z,57.67
2023-03-21T20:24:31.138Z,57.62
2023-03-21T20:34:37.053Z,58.34
2023-03-21T20:39:30.070Z,59.29
2023-03-21T20:44:48.472Z,59.95
2023-03-21T20:49:33.715Z,60.63
2023-03-21T20:54:25.401Z,60.38
2023-03-21T20:59:26.149Z,60.60
2023-03-21T21:04:20.473Z,60.32
2023-03-21T21:09:12.373Z,60.36
2023-03-21T21:14:05.209Z,60.10
2023-03-21T21:18:56.920Z,59.94
2023-03-21T21:23:48.607Z,60.58
2023-03-21T21:28:43.274Z,61.83
2023-03-21T21:33:35.564Z,62.33
2023-03-21T21:38:29.245Z,63.43
2023-03-21T21:43:21.165Z,64.26
2023-03-21T21:48:14.111Z,64.98
2023-03-21T21:53:06.083Z,64.89
2023-03-21T21:58:00.543Z,64.84
2023-03-21T22:02:53.133Z,64.50
2023-03-21T22:07:54.198Z,64.84
2023-03-21T22:12:46.289Z,65.74
2023-03-21T22:17:39.423Z,65.74
2023-03-21T22:22:31.160Z,66.04
2023-03-21T22:27:22.867Z,65.24
2023-03-21T22:32:14.559Z,64.88
2023-03-21T22:37:06.326Z,64.98
2023-03-21T22:42:00.896Z,65.29
2023-03-21T22:46:52.617Z,65.54
2023-03-21T22:51:44.336Z,65.78
2023-03-21T22:56:36.336Z,65.78
2023-03-21T23:01:28.055Z,65.07
2023-03-21T23:06:19.806Z,65.24
2023-03-21T23:11:12.830Z,64.84
2023-03-21T23:16:06.060Z,64.81
2023-03-21T23:20:58.515Z,64.92
2023-03-21T23:25:50.720Z,64.90
2023-03-21T23:30:43.432Z,65.65
2023-03-21T23:35:38.995Z,65.96
2023-03-21T23:40:31.487Z,66.46
2023-03-21T23:45:23.162Z,66.80
2023-03-21T23:50:14.895Z,66.47
2023-03-21T23:55:06.834Z,66.74
2023-03-21T23:59:58.617Z,66.74
